createdAt,value
2018-06-28T00:01:46.913Z,79.00
2018-06-28T00:04:16.854Z,79.10
2018-06-28T00:06:48.154Z,79.40
2018-06-28T00:09:18.715Z,79.60
2018-06-28T00:11:47.740Z,79.60
2018-06-28T00:14:16.712Z,79.90
2018-06-28T00:16:46.385Z,80.10
2018-06-28T00:19:15.697Z,80.50
2018-06-28T00:24:14.241Z,80.50
2018-06-28T00:26:44.958Z,80.50
2018-06-28T00:29:15.826Z,80.50
2018-06-28T00:31:46.250Z,80.70
2018-06-28T00:34:16.133Z,80.80
2018-06-28T00:36:46.424Z,80.80
2018-06-28T00:41:45.230Z,80.60
2018-06-28T00:44:15.325Z,81.20
2018-06-28T00:46:46.084Z,81.20
2018-06-28T00:49:16.040Z,81.40
2018-06-28T00:51:46.018Z,81.60
2018-06-28T00:54:16.023Z,82.00
2018-06-28T00:56:45.861Z,82.10
2018-06-28T00:59:16.730Z,82.30
2018-06-28T01:01:46.717Z,82.50
2018-06-28T01:04:16.508Z,82.90
2018-06-28T01:06:46.416Z,82.90
2018-06-28T01:09:16.303Z,83.00
2018-06-28T01:11:46.109Z,82.80
2018-06-28T01:14:15.150Z,83.10
2018-06-28T01:16:45.144Z,82.80
2018-06-28T01:19:15.600Z,83.10
2018-06-28T01:21:46.359Z,82.50
2018-06-28T01:24:16.139Z,83.20
2018-06-28T01:26:46.290Z,82.60
2018-06-28T01:29:16.083Z,82.70
2018-06-28T01:31:46.518Z,83.00
2018-06-28T01:34:16.437Z,83.20
2018-06-28T01:36:45.719Z,83.40
2018-06-28T01:39:16.517Z,83.70
2018-06-28T01:41:50.750Z,84.10
2018-06-28T01:44:18.714Z,84.50
2018-06-28T01:46:47.925Z,84.40
2018-06-28T01:49:16.800Z,83.70
2018-06-28T01:51:46.564Z,83.60
2018-06-28T01:54:15.146Z,83.20
2018-06-28T01:56:46.030Z,83.60
2018-06-28T01:59:16.203Z,84.10
2018-06-28T02:01:46.554Z,84.10
2018-06-28T02:04:16.539Z,83.60
2018-06-28T02:06:46.322Z,83.60
2018-06-28T02:09:16.190Z,83.30
2018-06-28T02:11:47.495Z,83.70
2018-06-28T02:14:16.606Z,83.50
2018-06-28T02:16:45.541Z,83.10
2018-06-28T02:19:14.769Z,83.50
2018-06-28T02:21:45.017Z,84.30
2018-06-28T02:24:15.489Z,84.90
2018-06-28T02:26:46.099Z,85.00
2018-06-28T02:29:15.663Z,85.60
2018-06-28T02:31:45.825Z,85.50
2018-06-28T02:34:15.774Z,85.10
2018-06-28T02:36:45.383Z,84.60
2018-06-28T02:39:14.870Z,84.00
2018-06-28T02:44:14.089Z,84.10
2018-06-28T02:46:45.312Z,84.20
2018-06-28T02:49:15.662Z,84.00
2018-06-28T02:51:45.887Z,84.60
2018-06-28T02:54:16.115Z,86.00
2018-06-28T02:56:45.142Z,85.50
2018-06-28T02:59:15.238Z,85.50
2018-06-28T03:01:44.863Z,85.80
2018-06-28T03:04:15.613Z,85.60
2018-06-28T03:06:45.414Z,85.60
2018-06-28T03:09:16.558Z,85.60
2018-06-28T03:11:46.032Z,85.60
2018-06-28T03:14:16.506Z,85.20
2018-06-28T03:16:46.346Z,85.60
2018-06-28T03:19:16.025Z,85.70
2018-06-28T03:21:46.156Z,85.80
2018-06-28T03:24:16.464Z,85.60
2018-06-28T03:26:46.314Z,86.00
2018-06-28T03:29:15.651Z,86.80
2018-06-28T03:31:46.627Z,87.00
2018-06-28T03:34:16.081Z,86.60
2018-06-28T03:36:46.537Z,86.60
2018-06-28T03:39:16.891Z,86.70
2018-06-28T03:41:46.020Z,87.10
2018-06-28T03:44:15.875Z,87.10
2018-06-28T03:46:46.744Z,87.30
2018-06-28T03:49:16.144Z,87.50
2018-06-28T03:51:46.029Z,87.10
2018-06-28T03:54:16.023Z,87.10
2018-06-28T03:56:46.297Z,87.10
2018-06-28T03:59:16.144Z,86.70
2018-06-28T04:01:46.845Z,87.10
2018-06-28T04:04:16.933Z,87.10
2018-06-28T04:06:47.644Z,87.10
2018-06-28T04:09:16.516Z,87.10
2018-06-28T04:11:46.698Z,88.00
2018-06-28T04:14:16.701Z,87.20
2018-06-28T04:16:45.996Z,87.30
2018-06-28T04:19:15.213Z,87.30
2018-06-28T04:21:44.861Z,87.30
2018-06-28T04:24:14.797Z,87.20
2018-06-28T04:26:45.596Z,87.20
2018-06-28T04:29:15.045Z,87.30
2018-06-28T04:31:45.876Z,87.40
2018-06-28T04:34:17.135Z,87.50
2018-06-28T04:36:45.696Z,87.50
2018-06-28T04:39:14.941Z,87.60
2018-06-28T04:41:44.498Z,87.70
2018-06-28T04:44:13.781Z,87.30
2018-06-28T04:46:43.303Z,87.50
2018-06-28T04:49:13.093Z,87.10
2018-06-28T04:51:43.501Z,87.50
2018-06-28T04:54:13.505Z,87.10
2018-06-28T04:56:43.817Z,87.20
2018-06-28T04:59:13.640Z,87.30
2018-06-28T05:01:44.256Z,87.40
2018-06-28T05:04:13.434Z,87.60
2018-06-28T05:06:44.431Z,85.70
2018-06-28T05:11:42.333Z,83.50
2018-06-28T05:14:11.399Z,82.60
2018-06-28T05:16:41.475Z,82.00
2018-06-28T05:19:11.643Z,81.00
2018-06-28T05:21:40.754Z,80.50
2018-06-28T05:24:10.505Z,79.90
2018-06-28T05:26:41.097Z,79.60
2018-06-28T05:31:44.589Z,78.30
2018-06-28T05:34:13.997Z,77.80
2018-06-28T05:36:43.866Z,77.80
2018-06-28T05:39:13.357Z,77.30
2018-06-28T05:41:43.496Z,77.00
2018-06-28T05:44:13.269Z,76.30
2018-06-28T05:46:42.709Z,76.40
2018-06-28T05:49:12.163Z,75.80
2018-06-28T05:51:42.130Z,75.60
2018-06-28T05:54:11.743Z,74.80
2018-06-28T05:56:40.951Z,75.10
2018-06-28T05:59:10.783Z,75.10
2018-06-28T06:01:39.963Z,74.10
2018-06-28T06:04:10.511Z,74.40
2018-06-28T06:06:41.372Z,74.60
2018-06-28T06:09:12.788Z,74.90
2018-06-28T06:11:45.505Z,74.70
2018-06-28T06:14:16.017Z,74.70
2018-06-28T06:16:46.329Z,74.60
2018-06-28T06:22:07.342Z,74.00
2018-06-28T06:24:38.467Z,73.20
2018-06-28T06:27:08.904Z,73.20
2018-06-28T06:32:09.234Z,73.20
2018-06-28T06:34:42.457Z,72.60
2018-06-28T06:37:12.755Z,72.90
2018-06-28T06:39:43.844Z,72.60
2018-06-28T06:42:15.048Z,73.20
2018-06-28T06:44:45.804Z,71.40
2018-06-28T06:47:15.170Z,71.60
2018-06-28T06:49:44.776Z,71.80
2018-06-28T06:52:13.806Z,70.90
2018-06-28T06:54:44.142Z,70.30
2018-06-28T06:57:13.752Z,70.40
2018-06-28T07:02:12.247Z,69.10
2018-06-28T07:04:42.944Z,68.70
2018-06-28T07:07:13.491Z,68.60
2018-06-28T07:12:13.368Z,67.70
2018-06-28T07:14:43.654Z,67.30
2018-06-28T07:17:14.924Z,68.80
2018-06-28T07:22:33.123Z,65.80
2018-06-28T07:25:06.324Z,65.60
2018-06-28T07:27:36.389Z,65.50
2018-06-28T07:30:08.169Z,65.50
2018-06-28T07:33:11.868Z,64.60
2018-06-28T07:36:10.142Z,66.30
2018-06-28T07:38:41.707Z,66.30
2018-06-28T07:41:13.605Z,66.30
2018-06-28T07:46:38.604Z,66.60
2018-06-28T07:49:10.283Z,66.20
2018-06-28T07:51:42.510Z,66.90
2018-06-28T07:54:11.560Z,67.50
2018-06-28T07:57:04.920Z,65.90
2018-06-28T07:59:38.822Z,66.40
2018-06-28T08:02:15.576Z,66.10
2018-06-28T08:04:45.907Z,65.10
2018-06-28T08:07:16.596Z,65.40
2018-06-28T08:09:45.874Z,65.90
2018-06-28T08:12:16.236Z,63.50
2018-06-28T08:14:45.719Z,63.60
2018-06-28T08:17:17.815Z,62.10
2018-06-28T08:19:47.653Z,61.50
2018-06-28T08:22:18.667Z,60.30
2018-06-28T08:24:47.683Z,59.60
2018-06-28T08:27:17.049Z,60.00
2018-06-28T08:29:47.023Z,59.00
2018-06-28T08:34:46.344Z,58.80
2018-06-28T08:37:15.416Z,59.60
2018-06-28T08:39:44.912Z,59.10
2018-06-28T08:42:13.838Z,57.70
2018-06-28T08:44:43.390Z,57.00
2018-06-28T08:47:12.344Z,57.50
2018-06-28T08:49:42.726Z,57.70
2018-06-28T08:52:12.226Z,56.90
2018-06-28T08:54:41.546Z,57.10
2018-06-28T08:57:11.113Z,57.10
2018-06-28T08:59:40.354Z,56.60
2018-06-28T09:02:10.063Z,55.80
2018-06-28T09:04:39.101Z,56.20
2018-06-28T09:09:38.211Z,57.30
2018-06-28T09:12:08.088Z,55.60
2018-06-28T09:14:38.008Z,55.30
2018-06-28T09:17:09.587Z,55.50
2018-06-28T09:19:38.493Z,56.60
2018-06-28T09:22:09.338Z,57.80
2018-06-28T09:24:39.535Z,57.70
2018-06-28T09:27:10.895Z,57.20
2018-06-28T09:29:40.909Z,58.20
2018-06-28T09:32:10.386Z,55.80
2018-06-28T09:34:40.039Z,55.30
2018-06-28T09:37:11.822Z,54.90
2018-06-28T09:39:42.167Z,55.20
2018-06-28T09:42:12.806Z,54.30
2018-06-28T09:44:42.463Z,53.50
2018-06-28T09:47:11.864Z,53.10
2018-06-28T09:49:42.239Z,54.30
2018-06-28T09:52:14.081Z,53.50
2018-06-28T09:57:13.981Z,53.80
2018-06-28T09:59:45.016Z,53.00
2018-06-28T10:02:15.767Z,53.10
2018-06-28T10:04:45.490Z,51.00
2018-06-28T10:07:14.830Z,51.50
2018-06-28T10:09:43.968Z,51.30
2018-06-28T10:14:42.872Z,50.80
2018-06-28T10:19:41.981Z,50.80
2018-06-28T10:22:11.233Z,50.90
2018-06-28T10:24:40.674Z,51.30
2018-06-28T10:27:10.203Z,51.70
2018-06-28T10:29:40.843Z,50.80
2018-06-28T10:32:10.333Z,50.40
2018-06-28T10:34:39.198Z,50.40
2018-06-28T10:37:09.873Z,50.00
2018-06-28T10:39:37.865Z,49.60
2018-06-28T10:42:07.982Z,48.50
2018-06-28T10:44:38.077Z,48.40
2018-06-28T10:47:08.478Z,47.10
2018-06-28T10:49:39.425Z,47.00
2018-06-28T10:52:14.019Z,47.60
2018-06-28T10:54:43.768Z,46.50
2018-06-28T10:57:13.855Z,46.00
2018-06-28T10:59:44.237Z,45.90
2018-06-28T11:02:13.311Z,46.60
2018-06-28T11:04:41.846Z,46.70
2018-06-28T11:07:11.210Z,47.50
2018-06-28T11:09:40.543Z,48.10
2018-06-28T11:12:11.554Z,49.00
2018-06-28T11:14:40.367Z,49.10
2018-06-28T11:17:11.561Z,49.90
2018-06-28T11:25:04.857Z,49.80
2018-06-28T11:27:35.540Z,49.50
2018-06-28T11:30:05.925Z,48.60
2018-06-28T11:32:35.098Z,47.00
2018-06-28T11:35:06.458Z,46.60
2018-06-28T11:37:35.626Z,45.80
2018-06-28T11:40:05.672Z,46.40
2018-06-28T11:42:36.421Z,47.10
2018-06-28T11:45:06.840Z,47.20
2018-06-28T11:47:38.058Z,46.50
2018-06-28T11:50:07.554Z,46.60
2018-06-28T11:52:40.108Z,43.70
2018-06-28T11:55:08.737Z,43.60
2018-06-28T11:57:37.807Z,43.40
2018-06-28T12:00:07.452Z,45.00
2018-06-28T12:02:36.969Z,43.50
2018-06-28T12:05:08.346Z,41.80
2018-06-28T12:07:37.294Z,41.20
2018-06-28T12:10:06.705Z,40.70
2018-06-28T12:12:36.906Z,41.20
2018-06-28T12:15:06.036Z,40.70
2018-06-28T12:17:42.087Z,41.40
2018-06-28T12:20:10.884Z,41.70
2018-06-28T12:22:40.899Z,41.70
2018-06-28T12:25:09.961Z,42.10
2018-06-28T12:27:41.256Z,41.20
2018-06-28T12:30:12.596Z,41.70
2018-06-28T12:32:43.261Z,42.30
2018-06-28T12:35:12.641Z,42.30
2018-06-28T12:37:42.842Z,41.40
2018-06-28T12:40:13.261Z,41.60
2018-06-28T12:45:13.326Z,42.30
2018-06-28T12:47:51.360Z,41.40
2018-06-28T12:50:19.489Z,41.30
2018-06-28T12:53:05.859Z,41.50
2018-06-28T12:55:41.818Z,41.80
2018-06-28T12:58:12.548Z,42.40
2018-06-28T13:05:57.873Z,41.90
2018-06-28T13:08:26.032Z,40.90
2018-06-28T13:11:03.566Z,41.90
2018-06-28T13:13:38.456Z,41.60
2018-06-28T13:16:14.376Z,41.30
2018-06-28T13:18:50.317Z,41.40
2018-06-28T13:21:18.254Z,41.80
2018-06-28T13:23:45.954Z,41.40
2018-06-28T13:26:16.314Z,40.40
2018-06-28T13:29:00.056Z,39.50
2018-06-28T13:31:33.717Z,39.10
2018-06-28T13:34:03.881Z,39.60
2018-06-28T13:36:35.031Z,40.10
2018-06-28T13:39:07.867Z,41.30
2018-06-28T13:41:41.200Z,40.90
2018-06-28T13:44:12.971Z,41.40
2018-06-28T13:49:12.121Z,40.60
2018-06-28T13:51:42.392Z,40.20
2018-06-28T13:54:12.012Z,39.60
2018-06-28T13:56:41.925Z,40.20
2018-06-28T13:59:11.027Z,40.50
2018-06-28T14:01:42.687Z,41.80
2018-06-28T14:04:11.520Z,40.60
2018-06-28T14:06:42.936Z,40.50
2018-06-28T14:09:14.116Z,39.90
2018-06-28T14:11:46.446Z,41.10
2018-06-28T14:14:17.159Z,40.50
2018-06-28T14:16:46.556Z,39.70
2018-06-28T14:19:16.041Z,39.80
2018-06-28T14:21:45.971Z,40.00
2018-06-28T14:24:15.333Z,40.50
2018-06-28T14:26:44.276Z,41.10
2018-06-28T14:29:17.513Z,42.10
2018-06-28T14:31:45.844Z,41.50
2018-06-28T14:34:15.751Z,42.00
2018-06-28T14:36:46.827Z,42.70
2018-06-28T14:39:19.329Z,42.00
2018-06-28T14:44:28.858Z,40.80
2018-06-28T14:47:07.253Z,40.00
2018-06-28T14:49:38.832Z,40.00
2018-06-28T14:52:11.302Z,39.10
2018-06-28T14:54:44.147Z,39.20
2018-06-28T14:57:13.135Z,38.70
2018-06-28T14:59:42.238Z,39.20
2018-06-28T15:02:13.394Z,39.50
2018-06-28T15:04:43.833Z,40.00
2018-06-28T15:09:43.865Z,40.90
2018-06-28T15:12:13.318Z,41.30
2018-06-28T15:21:06.547Z,41.80
2018-06-28T15:23:38.829Z,41.30
2018-06-28T15:26:09.423Z,41.70
2018-06-28T15:28:39.056Z,41.30
2018-06-28T15:31:13.723Z,41.70
2018-06-28T15:36:38.714Z,41.70
2018-06-28T15:39:11.448Z,42.30
2018-06-28T15:41:42.200Z,42.30
2018-06-28T15:44:12.427Z,42.30
2018-06-28T15:46:43.676Z,42.30
2018-06-28T15:49:12.752Z,42.10
2018-06-28T15:51:42.397Z,41.80
2018-06-28T15:54:10.654Z,42.70
2018-06-28T15:56:39.185Z,41.80
2018-06-28T15:59:09.131Z,41.80
2018-06-28T16:01:39.163Z,42.10
2018-06-28T16:04:09.685Z,42.30
2018-06-28T16:06:39.191Z,42.50
2018-06-28T16:09:09.618Z,42.50
2018-06-28T16:11:39.931Z,41.80
2018-06-28T16:14:09.289Z,42.00
2018-06-28T16:16:38.543Z,41.80
2018-06-28T16:19:09.927Z,41.90
2018-06-28T16:21:41.856Z,41.70
2018-06-28T16:24:13.796Z,41.80
2018-06-28T16:26:44.430Z,42.00
2018-06-28T16:29:15.029Z,42.40
2018-06-28T16:31:43.643Z,42.20
2018-06-28T16:34:14.460Z,42.10
2018-06-28T16:36:44.459Z,42.40
2018-06-28T16:39:14.517Z,42.40
2018-06-28T16:41:44.682Z,42.60
2018-06-28T16:44:15.846Z,42.80
2018-06-28T16:46:45.960Z,42.60
2018-06-28T16:49:16.131Z,43.00
2018-06-28T16:51:45.855Z,43.30
2018-06-28T16:54:17.996Z,43.40
2018-06-28T16:56:46.860Z,43.70
2018-06-28T16:59:17.690Z,44.00
2018-06-28T17:01:47.747Z,44.10
2018-06-28T17:04:19.769Z,43.70
2018-06-28T17:06:47.445Z,43.70
2018-06-28T17:09:16.121Z,44.00
2018-06-28T17:11:46.298Z,43.90
2018-06-28T17:16:44.631Z,44.30
2018-06-28T17:19:16.510Z,44.50
2018-06-28T17:21:46.602Z,45.40
2018-06-28T17:24:16.113Z,45.00
2018-06-28T17:26:45.291Z,45.00
2018-06-28T17:29:13.890Z,45.30
2018-06-28T17:31:43.207Z,44.80
2018-06-28T17:34:13.423Z,45.40
2018-06-28T17:36:42.623Z,45.40
2018-06-28T17:39:12.307Z,45.90
2018-06-28T17:41:42.341Z,45.60
2018-06-28T17:44:12.748Z,45.70
2018-06-28T17:46:42.378Z,45.60
2018-06-28T17:51:41.941Z,45.40
2018-06-28T17:54:11.814Z,45.60
2018-06-28T17:56:41.982Z,45.30
2018-06-28T17:59:15.150Z,45.50
2018-06-28T18:01:44.326Z,46.00
2018-06-28T18:04:13.186Z,46.00
2018-06-28T18:06:42.733Z,46.20
2018-06-28T18:09:12.989Z,46.20
2018-06-28T18:11:44.203Z,47.20
2018-06-28T18:14:12.833Z,46.70
2018-06-28T18:16:41.621Z,47.00
2018-06-28T18:19:09.884Z,47.00
2018-06-28T18:21:41.635Z,47.30
2018-06-28T18:24:10.406Z,47.70
2018-06-28T18:26:39.780Z,48.40
2018-06-28T18:29:08.492Z,48.50
2018-06-28T18:31:38.026Z,48.60
2018-06-28T18:34:07.272Z,48.60
2018-06-28T18:36:38.643Z,49.00
2018-06-28T18:39:09.426Z,49.20
2018-06-28T18:41:38.695Z,49.00
2018-06-28T18:44:07.731Z,49.00
2018-06-28T18:46:36.794Z,48.60
2018-06-28T18:49:06.563Z,48.60
2018-06-28T18:51:36.692Z,48.90
2018-06-28T18:56:33.623Z,48.90
2018-06-28T18:59:03.079Z,48.90
2018-06-28T19:01:35.753Z,49.00
2018-06-28T19:04:08.236Z,49.10
2018-06-28T19:06:37.565Z,49.50
2018-06-28T19:09:11.535Z,49.60
2018-06-28T19:11:40.799Z,49.60
2018-06-28T19:14:14.451Z,49.80
2018-06-28T19:16:47.899Z,49.80
2018-06-28T19:19:16.662Z,49.90
2018-06-28T19:21:49.774Z,49.90
2018-06-28T19:24:17.531Z,50.30
2018-06-28T19:26:49.351Z,50.40
2018-06-28T19:29:23.386Z,50.50
2018-06-28T19:32:07.518Z,50.80
2018-06-28T19:34:36.736Z,50.80
2018-06-28T19:37:06.832Z,51.20
2018-06-28T19:39:41.155Z,51.40
2018-06-28T19:42:14.835Z,51.40
2018-06-28T19:44:42.686Z,52.00
2018-06-28T19:47:11.881Z,51.90
2018-06-28T19:49:45.394Z,52.20
2018-06-28T19:52:18.577Z,52.30
2018-06-28T19:54:46.321Z,52.60
2018-06-28T19:57:14.024Z,52.60
2018-06-28T19:59:48.368Z,52.80
2018-06-28T20:02:22.161Z,53.30
2018-06-28T20:05:04.292Z,53.50
2018-06-28T20:07:37.201Z,53.60
2018-06-28T20:10:08.803Z,54.30
2018-06-28T20:12:43.546Z,54.90
2018-06-28T20:15:17.236Z,55.40
2018-06-28T20:17:56.208Z,56.20
2018-06-28T20:20:26.269Z,56.10
2018-06-28T20:22:53.904Z,55.60
2018-06-28T20:27:54.683Z,55.80
2018-06-28T20:30:27.971Z,56.00
2018-06-28T20:33:02.584Z,55.90
2018-06-28T20:35:31.110Z,56.60
2018-06-28T20:38:06.877Z,57.00
2018-06-28T20:40:38.439Z,57.20
2018-06-28T20:43:10.160Z,57.40
2018-06-28T20:45:41.468Z,57.50
2018-06-28T20:48:13.630Z,57.70
2018-06-28T20:50:45.514Z,57.60
2018-06-28T20:53:17.733Z,58.80
2018-06-28T20:55:47.698Z,59.10
2018-06-28T20:58:17.034Z,59.70
2018-06-28T21:00:47.699Z,58.60
2018-06-28T21:05:46.839Z,60.30
2018-06-28T21:08:16.464Z,62.00
2018-06-28T21:15:45.810Z,64.50
2018-06-28T21:18:15.549Z,65.00
2018-06-28T21:20:46.318Z,65.10
2018-06-28T21:23:15.947Z,66.10
2018-06-28T21:25:45.703Z,66.50
2018-06-28T21:28:15.814Z,66.90
2018-06-28T21:30:45.383Z,67.40
2018-06-28T21:33:15.541Z,66.60
2018-06-28T21:35:46.325Z,66.40
2018-06-28T21:38:15.928Z,67.60
2018-06-28T21:40:45.503Z,68.60
2018-06-28T21:43:15.550Z,69.60
2018-06-28T21:45:44.537Z,70.60
2018-06-28T21:48:14.663Z,70.50
2018-06-28T21:50:45.688Z,70.30
2018-06-28T21:53:15.585Z,70.50
2018-06-28T21:55:45.547Z,71.10
2018-06-28T21:58:15.916Z,70.70
2018-06-28T22:00:44.728Z,70.60
2018-06-28T22:03:14.920Z,70.60
2018-06-28T22:05:45.685Z,70.70
2018-06-28T22:08:15.739Z,71.40
2018-06-28T22:10:46.826Z,70.80
2018-06-28T22:13:16.781Z,71.60
2018-06-28T22:15:46.734Z,71.30
2018-06-28T22:18:16.680Z,71.80
2018-06-28T22:20:46.509Z,72.40
2018-06-28T22:23:16.707Z,73.50
2018-06-28T22:25:46.060Z,72.30
2018-06-28T22:30:45.312Z,70.40
2018-06-28T22:33:15.528Z,71.10
2018-06-28T22:35:45.973Z,72.00
2018-06-28T22:38:16.088Z,72.30
2018-06-28T22:40:45.638Z,74.10
2018-06-28T22:43:15.271Z,73.20
2018-06-28T22:45:46.053Z,73.00
2018-06-28T22:48:15.660Z,72.70
2018-06-28T22:50:45.601Z,72.00
2018-06-28T22:53:15.259Z,71.60
2018-06-28T22:55:45.215Z,71.80
2018-06-28T22:58:16.002Z,70.50
2018-06-28T23:00:46.239Z,70.00
2018-06-28T23:03:16.594Z,69.30
2018-06-28T23:05:46.629Z,69.80
2018-06-28T23:08:17.380Z,69.60
2018-06-28T23:10:46.971Z,69.70
2018-06-28T23:13:17.076Z,69.70
2018-06-28T23:15:46.585Z,69.50
2018-06-28T23:18:16.506Z,70.10
2018-06-28T23:20:46.766Z,70.20
2018-06-28T23:23:16.353Z,70.40
2018-06-28T23:25:47.554Z,70.90
2018-06-28T23:28:17.788Z,71.40
2018-06-28T23:30:47.058Z,71.70
2018-06-28T23:33:16.694Z,71.60
2018-06-28T23:35:47.084Z,71.60
2018-06-28T23:38:16.691Z,71.70
2018-06-28T23:40:46.460Z,72.30
2018-06-28T23:43:16.053Z,70.70
2018-06-28T23:45:46.742Z,71.00
2018-06-28T23:48:16.683Z,70.70
2018-06-28T23:50:46.207Z,70.60
2018-06-28T23:53:16.670Z,69.70
2018-06-28T23:55:46.428Z,69.70
2018-06-28T23:58:15.638Z,68.30
